sensor_id;sensor_type;location;lat;lon;timestamp;P1;durP1;ratioP1;P2;durP2;ratioP2
291;SDS011;23311;48.776;9.162;2023-08-24T00:01:40;8.83;;;6.70;;
291;SDS011;23311;48.776;9.162;2023-08-24T00:04:08;7.20;;;6.67;;
291;SDS011;23311;48.776;9.162;2023-08-24T00:06:36;7.83;;;6.60;;
291;SDS011;23311;48.776;9.162;2023-08-24T00:09:04;9.77;;;6.27;;
291;SDS011;23311;48.776;9.162;2023-08-24T00:11:34;6.80;;;6.40;;
291;SDS011;23311;48.776;9.162;2023-08-24T00:14:03;6.87;;;6.47;;
291;SDS011;23311;48.776;9.162;2023-08-24T00:16:31;8.30;;;6.73;;
291;SDS011;23311;48.776;9.162;2023-08-24T00:18:59;6.87;;;6.47;;
291;SDS011;23311;48.776;9.162;2023-08-24T00:21:28;7.60;;;7.20;;
291;SDS011;23311;48.776;9.162;2023-08-24T00:23:56;6.70;;;6.30;;
291;SDS011;23311;48.776;9.162;2023-08-24T00:26:26;6.10;;;5.80;;
291;SDS011;23311;48.776;9.162;2023-08-24T00:28:55;8.47;;;6.50;;
291;SDS011;23311;48.776;9.162;2023-08-24T00:31:23;7.37;;;6.97;;
291;SDS011;23311;48.776;9.162;2023-08-24T00:33:51;7.60;;;6.73;;
291;SDS011;23311;48.776;9.162;2023-08-24T00:36:19;7.00;;;6.50;;
291;SDS011;23311;48.776;9.162;2023-08-24T00:38:49;7.70;;;5.77;;
291;SDS011;23311;48.776;9.162;2023-08-24T00:41:19;7.67;;;7.27;;
291;SDS011;23311;48.776;9.162;2023-08-24T00:43:48;7.20;;;6.80;;
291;SDS011;23311;48.776;9.162;2023-08-24T00:46:18;7.30;;;6.90;;
291;SDS011;23311;48.776;9.162;2023-08-24T00:48:46;8.63;;;7.10;;
291;SDS011;23311;48.776;9.162;2023-08-24T00:51:15;9.60;;;6.67;;
291;SDS011;23311;48.776;9.162;2023-08-24T00:53:43;7.53;;;7.13;;
291;SDS011;23311;48.776;9.162;2023-08-24T00:56:12;7.07;;;6.67;;
291;SDS011;23311;48.776;9.162;2023-08-24T00:58:40;6.90;;;6.50;;
291;SDS011;23311;48.776;9.162;2023-08-24T01:01:10;7.13;;;6.77;;
291;SDS011;23311;48.776;9.162;2023-08-24T01:03:39;6.60;;;6.17;;
291;SDS011;23311;48.776;9.162;2023-08-24T01:06:07;7.20;;;6.80;;
291;SDS011;23311;48.776;9.162;2023-08-24T01:08:35;7.30;;;6.90;;
291;SDS011;23311;48.776;9.162;2023-08-24T01:11:05;8.23;;;6.33;;
291;SDS011;23311;48.776;9.162;2023-08-24T01:13:47;7.17;;;6.77;;
291;SDS011;23311;48.776;9.162;2023-08-24T01:16:18;9.33;;;6.13;;
291;SDS011;23311;48.776;9.162;2023-08-24T01:18:55;7.67;;;7.27;;
291;SDS011;23311;48.776;9.162;2023-08-24T01:21:26;7.67;;;6.93;;
291;SDS011;23311;48.776;9.162;2023-08-24T01:23:56;7.60;;;7.20;;
291;SDS011;23311;48.776;9.162;2023-08-24T01:26:32;9.17;;;6.80;;
291;SDS011;23311;48.776;9.162;2023-08-24T01:29:01;7.83;;;6.77;;
291;SDS011;23311;48.776;9.162;2023-08-24T01:31:33;8.37;;;7.47;;
291;SDS011;23311;48.776;9.162;2023-08-24T01:34:01;7.77;;;6.90;;
291;SDS011;23311;48.776;9.162;2023-08-24T01:36:29;7.07;;;6.67;;
291;SDS011;23311;48.776;9.162;2023-08-24T01:38:58;7.13;;;6.73;;
291;SDS011;23311;48.776;9.162;2023-08-24T01:41:36;7.80;;;7.40;;
291;SDS011;23311;48.776;9.162;2023-08-24T01:44:05;6.93;;;6.53;;
291;SDS011;23311;48.776;9.162;2023-08-24T01:46:35;7.80;;;7.40;;
291;SDS011;23311;48.776;9.162;2023-08-24T01:49:05;8.70;;;8.00;;
291;SDS011;23311;48.776;9.162;2023-08-24T01:51:34;7.60;;;7.20;;
291;SDS011;23311;48.776;9.162;2023-08-24T01:54:03;7.70;;;7.30;;
291;SDS011;23311;48.776;9.162;2023-08-24T01:56:31;8.10;;;7.70;;
291;SDS011;23311;48.776;9.162;2023-08-24T01:59:02;9.73;;;7.90;;
291;SDS011;23311;48.776;9.162;2023-08-24T02:01:30;8.30;;;7.90;;
291;SDS011;23311;48.776;9.162;2023-08-24T02:03:58;7.90;;;7.50;;
291;SDS011;23311;48.776;9.162;2023-08-24T02:06:26;8.53;;;8.03;;
291;SDS011;23311;48.776;9.162;2023-08-24T02:08:54;7.93;;;7.53;;
291;SDS011;23311;48.776;9.162;2023-08-24T02:11:23;8.17;;;7.77;;
291;SDS011;23311;48.776;9.162;2023-08-24T02:13:51;7.67;;;7.27;;
291;SDS011;23311;48.776;9.162;2023-08-24T02:16:20;9.63;;;8.47;;
291;SDS011;23311;48.776;9.162;2023-08-24T02:18:48;7.50;;;7.10;;
291;SDS011;23311;48.776;9.162;2023-08-24T02:21:17;9.10;;;8.60;;
291;SDS011;23311;48.776;9.162;2023-08-24T02:23:45;8.80;;;8.30;;
291;SDS011;23311;48.776;9.162;2023-08-24T02:26:13;8.67;;;8.23;;
291;SDS011;23311;48.776;9.162;2023-08-24T02:28:41;8.07;;;7.67;;
291;SDS011;23311;48.776;9.162;2023-08-24T02:31:09;8.17;;;7.77;;
291;SDS011;23311;48.776;9.162;2023-08-24T02:33:39;8.27;;;7.87;;
291;SDS011;23311;48.776;9.162;2023-08-24T02:36:07;8.77;;;8.27;;
291;SDS011;23311;48.776;9.162;2023-08-24T02:38:35;8.90;;;8.40;;
291;SDS011;23311;48.776;9.162;2023-08-24T02:41:03;8.63;;;8.13;;
291;SDS011;23311;48.776;9.162;2023-08-24T02:43:32;9.53;;;8.20;;
291;SDS011;23311;48.776;9.162;2023-08-24T02:46:01;9.20;;;8.70;;
291;SDS011;23311;48.776;9.162;2023-08-24T02:48:31;9.07;;;8.57;;
291;SDS011;23311;48.776;9.162;2023-08-24T02:51:01;9.77;;;7.90;;
291;SDS011;23311;48.776;9.162;2023-08-24T02:53:30;10.17;;;8.83;;
291;SDS011;23311;48.776;9.162;2023-08-24T02:55:58;11.20;;;9.53;;
291;SDS011;23311;48.776;9.162;2023-08-24T02:58:27;8.30;;;7.90;;
291;SDS011;23311;48.776;9.162;2023-08-24T03:00:55;8.53;;;8.03;;
291;SDS011;23311;48.776;9.162;2023-08-24T03:03:23;9.67;;;9.17;;
291;SDS011;23311;48.776;9.162;2023-08-24T03:05:55;9.47;;;8.97;;
291;SDS011;23311;48.776;9.162;2023-08-24T03:08:25;8.90;;;8.40;;
291;SDS011;23311;48.776;9.162;2023-08-24T03:10:53;9.30;;;8.80;;
291;SDS011;23311;48.776;9.162;2023-08-24T03:13:21;9.17;;;7.87;;
291;SDS011;23311;48.776;9.162;2023-08-24T03:15:50;9.73;;;9.23;;
291;SDS011;23311;48.776;9.162;2023-08-24T03:18:18;9.50;;;9.00;;
291;SDS011;23311;48.776;9.162;2023-08-24T03:20:48;8.90;;;8.40;;
291;SDS011;23311;48.776;9.162;2023-08-24T03:23:16;9.37;;;8.90;;
291;SDS011;23311;48.776;9.162;2023-08-24T03:25:46;8.50;;;8.03;;
291;SDS011;23311;48.776;9.162;2023-08-24T03:28:14;8.30;;;7.90;;
291;SDS011;23311;48.776;9.162;2023-08-24T03:30:45;10.67;;;9.13;;
291;SDS011;23311;48.776;9.162;2023-08-24T03:33:15;10.53;;;9.97;;
291;SDS011;23311;48.776;9.162;2023-08-24T03:35:43;9.70;;;9.20;;
291;SDS011;23311;48.776;9.162;2023-08-24T03:38:11;9.90;;;9.40;;
291;SDS011;23311;48.776;9.162;2023-08-24T03:40:39;10.20;;;9.73;;
291;SDS011;23311;48.776;9.162;2023-08-24T03:43:08;11.87;;;11.27;;
291;SDS011;23311;48.776;9.162;2023-08-24T03:45:37;11.67;;;11.07;;
291;SDS011;23311;48.776;9.162;2023-08-24T03:48:06;14.20;;;12.50;;
291;SDS011;23311;48.776;9.162;2023-08-24T03:50:34;10.63;;;10.03;;
291;SDS011;23311;48.776;9.162;2023-08-24T03:53:02;10.10;;;8.80;;
291;SDS011;23311;48.776;9.162;2023-08-24T03:55:31;9.77;;;9.27;;
291;SDS011;23311;48.776;9.162;2023-08-24T03:58:00;9.00;;;8.50;;
291;SDS011;23311;48.776;9.162;2023-08-24T04:00:29;10.07;;;9.47;;
291;SDS011;23311;48.776;9.162;2023-08-24T04:02:58;9.70;;;9.20;;
291;SDS011;23311;48.776;9.162;2023-08-24T04:05:26;8.87;;;8.37;;
291;SDS011;23311;48.776;9.162;2023-08-24T04:07:55;8.90;;;8.40;;
291;SDS011;23311;48.776;9.162;2023-08-24T04:10:23;10.63;;;9.60;;
291;SDS011;23311;48.776;9.162;2023-08-24T04:12:51;9.70;;;9.20;;
291;SDS011;23311;48.776;9.162;2023-08-24T04:15:19;10.10;;;9.60;;
291;SDS011;23311;48.776;9.162;2023-08-24T04:17:50;9.50;;;9.00;;
291;SDS011;23311;48.776;9.162;2023-08-24T04:20:18;10.30;;;9.80;;
291;SDS011;23311;48.776;9.162;2023-08-24T04:22:47;11.20;;;10.43;;
291;SDS011;23311;48.776;9.162;2023-08-24T04:25:15;10.50;;;9.40;;
291;SDS011;23311;48.776;9.162;2023-08-24T04:27:43;10.13;;;9.63;;
291;SDS011;23311;48.776;9.162;2023-08-24T04:30:12;12.10;;;11.50;;
291;SDS011;23311;48.776;9.162;2023-08-24T04:32:40;12.73;;;11.07;;
291;SDS011;23311;48.776;9.162;2023-08-24T04:35:10;12.03;;;10.70;;
291;SDS011;23311;48.776;9.162;2023-08-24T04:37:38;10.93;;;10.33;;
291;SDS011;23311;48.776;9.162;2023-08-24T04:40:07;13.27;;;10.70;;
291;SDS011;23311;48.776;9.162;2023-08-24T04:42:37;12.37;;;11.77;;
291;SDS011;23311;48.776;9.162;2023-08-24T04:45:06;11.00;;;10.40;;
291;SDS011;23311;48.776;9.162;2023-08-24T04:47:36;10.23;;;9.70;;
291;SDS011;23311;48.776;9.162;2023-08-24T04:50:04;10.33;;;9.33;;
291;SDS011;23311;48.776;9.162;2023-08-24T04:52:35;10.80;;;10.20;;
291;SDS011;23311;48.776;9.162;2023-08-24T04:55:03;10.93;;;9.37;;
291;SDS011;23311;48.776;9.162;2023-08-24T04:57:31;10.00;;;9.50;;
291;SDS011;23311;48.776;9.162;2023-08-24T04:59:59;10.83;;;10.23;;
291;SDS011;23311;48.776;9.162;2023-08-24T05:02:28;11.50;;;9.77;;
291;SDS011;23311;48.776;9.162;2023-08-24T05:04:56;11.60;;;11.00;;
291;SDS011;23311;48.776;9.162;2023-08-24T05:07:24;9.80;;;9.30;;
291;SDS011;23311;48.776;9.162;2023-08-24T05:09:54;11.90;;;11.30;;
291;SDS011;23311;48.776;9.162;2023-08-24T05:12:22;11.43;;;10.83;;
291;SDS011;23311;48.776;9.162;2023-08-24T05:14:50;10.33;;;9.83;;
291;SDS011;23311;48.776;9.162;2023-08-24T05:17:18;10.30;;;9.80;;
291;SDS011;23311;48.776;9.162;2023-08-24T05:19:50;10.90;;;10.33;;
291;SDS011;23311;48.776;9.162;2023-08-24T05:22:19;9.40;;;8.93;;
291;SDS011;23311;48.776;9.162;2023-08-24T05:24:48;9.10;;;8.53;;
291;SDS011;23311;48.776;9.162;2023-08-24T05:27:17;8.83;;;8.33;;
291;SDS011;23311;48.776;9.162;2023-08-24T05:29:45;8.37;;;7.93;;
291;SDS011;23311;48.776;9.162;2023-08-24T05:32:13;9.23;;;8.73;;
291;SDS011;23311;48.776;9.162;2023-08-24T05:34:41;8.10;;;7.70;;
291;SDS011;23311;48.776;9.162;2023-08-24T05:37:10;9.33;;;8.60;;
291;SDS011;23311;48.776;9.162;2023-08-24T05:39:38;8.80;;;8.30;;
291;SDS011;23311;48.776;9.162;2023-08-24T05:42:06;9.43;;;8.70;;
291;SDS011;23311;48.776;9.162;2023-08-24T05:44:36;8.17;;;7.60;;
291;SDS011;23311;48.776;9.162;2023-08-24T05:47:05;8.20;;;7.80;;
291;SDS011;23311;48.776;9.162;2023-08-24T05:49:33;8.70;;;8.00;;
291;SDS011;23311;48.776;9.162;2023-08-24T05:52:01;8.47;;;6.80;;
291;SDS011;23311;48.776;9.162;2023-08-24T05:54:30;9.00;;;7.97;;
291;SDS011;23311;48.776;9.162;2023-08-24T05:56:58;8.77;;;6.80;;
291;SDS011;23311;48.776;9.162;2023-08-24T05:59:27;8.10;;;6.60;;
291;SDS011;23311;48.776;9.162;2023-08-24T06:01:56;6.70;;;6.30;;
291;SDS011;23311;48.776;9.162;2023-08-24T06:04:25;8.10;;;7.70;;
291;SDS011;23311;48.776;9.162;2023-08-24T06:06:53;7.90;;;7.50;;
291;SDS011;23311;48.776;9.162;2023-08-24T06:09:21;7.90;;;7.33;;
291;SDS011;23311;48.776;9.162;2023-08-24T06:11:49;15.50;;;6.03;;
291;SDS011;23311;48.776;9.162;2023-08-24T06:14:17;8.17;;;7.80;;
291;SDS011;23311;48.776;9.162;2023-08-24T06:16:45;8.27;;;6.17;;
291;SDS011;23311;48.776;9.162;2023-08-24T06:19:16;9.27;;;6.70;;
291;SDS011;23311;48.776;9.162;2023-08-24T06:21:44;6.03;;;5.70;;
291;SDS011;23311;48.776;9.162;2023-08-24T06:24:12;7.07;;;6.67;;
291;SDS011;23311;48.776;9.162;2023-08-24T06:26:40;6.50;;;6.10;;
291;SDS011;23311;48.776;9.162;2023-08-24T06:29:09;6.57;;;5.90;;
291;SDS011;23311;48.776;9.162;2023-08-24T06:31:38;6.53;;;6.10;;
291;SDS011;23311;48.776;9.162;2023-08-24T06:34:07;8.27;;;5.50;;
291;SDS011;23311;48.776;9.162;2023-08-24T06:36:36;6.10;;;5.77;;
291;SDS011;23311;48.776;9.162;2023-08-24T06:39:04;6.73;;;6.33;;
291;SDS011;23311;48.776;9.162;2023-08-24T06:41:33;6.50;;;5.93;;
291;SDS011;23311;48.776;9.162;2023-08-24T06:44:02;9.17;;;6.40;;
291;SDS011;23311;48.776;9.162;2023-08-24T06:46:30;8.03;;;7.63;;
291;SDS011;23311;48.776;9.162;2023-08-24T06:48:58;6.43;;;6.00;;
291;SDS011;23311;48.776;9.162;2023-08-24T06:51:27;6.83;;;6.03;;
291;SDS011;23311;48.776;9.162;2023-08-24T06:53:56;6.63;;;5.30;;
291;SDS011;23311;48.776;9.162;2023-08-24T06:56:24;9.73;;;7.07;;
291;SDS011;23311;48.776;9.162;2023-08-24T06:58:53;6.70;;;6.30;;
291;SDS011;23311;48.776;9.162;2023-08-24T07:01:21;7.63;;;5.67;;
291;SDS011;23311;48.776;9.162;2023-08-24T07:03:49;6.47;;;5.47;;
291;SDS011;23311;48.776;9.162;2023-08-24T07:06:17;6.40;;;6.00;;
291;SDS011;23311;48.776;9.162;2023-08-24T07:08:45;6.27;;;5.93;;
291;SDS011;23311;48.776;9.162;2023-08-24T07:11:15;7.70;;;6.30;;
291;SDS011;23311;48.776;9.162;2023-08-24T07:13:43;7.53;;;6.40;;
291;SDS011;23311;48.776;9.162;2023-08-24T07:16:12;6.70;;;6.30;;
291;SDS011;23311;48.776;9.162;2023-08-24T07:18:40;8.07;;;6.57;;
291;SDS011;23311;48.776;9.162;2023-08-24T07:21:08;12.70;;;6.77;;
291;SDS011;23311;48.776;9.162;2023-08-24T07:23:37;7.50;;;7.10;;
291;SDS011;23311;48.776;9.162;2023-08-24T07:26:05;7.30;;;6.73;;
291;SDS011;23311;48.776;9.162;2023-08-24T07:28:36;7.50;;;7.10;;
291;SDS011;23311;48.776;9.162;2023-08-24T07:31:07;8.23;;;7.70;;
291;SDS011;23311;48.776;9.162;2023-08-24T07:33:37;7.30;;;6.90;;
291;SDS011;23311;48.776;9.162;2023-08-24T07:36:05;8.37;;;7.63;;
291;SDS011;23311;48.776;9.162;2023-08-24T07:38:34;7.77;;;7.30;;
291;SDS011;23311;48.776;9.162;2023-08-24T07:41:02;8.13;;;6.87;;
291;SDS011;23311;48.776;9.162;2023-08-24T07:43:30;8.20;;;7.43;;
291;SDS011;23311;48.776;9.162;2023-08-24T07:46:00;7.13;;;6.60;;
291;SDS011;23311;48.776;9.162;2023-08-24T07:48:32;7.47;;;7.13;;
291;SDS011;23311;48.776;9.162;2023-08-24T07:51:00;9.67;;;7.73;;
291;SDS011;23311;48.776;9.162;2023-08-24T07:53:28;7.77;;;6.77;;
291;SDS011;23311;48.776;9.162;2023-08-24T07:55:57;7.63;;;7.13;;
291;SDS011;23311;48.776;9.162;2023-08-24T07:58:25;8.07;;;6.97;;
291;SDS011;23311;48.776;9.162;2023-08-24T08:00:52;8.40;;;7.37;;
291;SDS011;23311;48.776;9.162;2023-08-24T08:03:22;13.00;;;7.97;;
291;SDS011;23311;48.776;9.162;2023-08-24T08:05:50;8.47;;;7.53;;
291;SDS011;23311;48.776;9.162;2023-08-24T08:08:18;8.13;;;7.73;;
291;SDS011;23311;48.776;9.162;2023-08-24T08:10:46;8.10;;;7.70;;
291;SDS011;23311;48.776;9.162;2023-08-24T08:13:14;8.70;;;7.70;;
291;SDS011;23311;48.776;9.162;2023-08-24T08:15:43;8.90;;;7.90;;
291;SDS011;23311;48.776;9.162;2023-08-24T08:18:11;7.80;;;7.40;;
291;SDS011;23311;48.776;9.162;2023-08-24T08:20:41;6.97;;;6.57;;
291;SDS011;23311;48.776;9.162;2023-08-24T08:23:09;6.67;;;6.10;;
291;SDS011;23311;48.776;9.162;2023-08-24T08:25:37;6.10;;;5.80;;
291;SDS011;23311;48.776;9.162;2023-08-24T08:28:05;6.50;;;5.53;;
291;SDS011;23311;48.776;9.162;2023-08-24T08:30:33;6.83;;;6.43;;
291;SDS011;23311;48.776;9.162;2023-08-24T08:33:02;12.07;;;5.53;;
291;SDS011;23311;48.776;9.162;2023-08-24T08:35:30;7.20;;;5.93;;
291;SDS011;23311;48.776;9.162;2023-08-24T08:37:59;6.17;;;5.87;;
291;SDS011;23311;48.776;9.162;2023-08-24T08:40:29;5.77;;;5.47;;
291;SDS011;23311;48.776;9.162;2023-08-24T08:42:58;6.90;;;6.00;;
291;SDS011;23311;48.776;9.162;2023-08-24T08:45:26;7.37;;;6.00;;
291;SDS011;23311;48.776;9.162;2023-08-24T08:47:56;8.43;;;7.50;;
291;SDS011;23311;48.776;9.162;2023-08-24T08:50:25;6.80;;;5.93;;
291;SDS011;23311;48.776;9.162;2023-08-24T08:52:56;7.07;;;6.23;;
291;SDS011;23311;48.776;9.162;2023-08-24T08:55:26;6.27;;;5.93;;
291;SDS011;23311;48.776;9.162;2023-08-24T08:57:56;5.73;;;5.43;;
291;SDS011;23311;48.776;9.162;2023-08-24T09:00:28;7.20;;;6.80;;
291;SDS011;23311;48.776;9.162;2023-08-24T09:02:57;6.50;;;6.10;;
291;SDS011;23311;48.776;9.162;2023-08-24T09:05:26;5.37;;;5.10;;
291;SDS011;23311;48.776;9.162;2023-08-24T09:07:54;5.57;;;5.27;;
291;SDS011;23311;48.776;9.162;2023-08-24T09:10:24;6.60;;;6.07;;
291;SDS011;23311;48.776;9.162;2023-08-24T09:12:53;6.53;;;6.13;;
291;SDS011;23311;48.776;9.162;2023-08-24T09:15:25;8.17;;;5.67;;
291;SDS011;23311;48.776;9.162;2023-08-24T09:17:55;7.13;;;5.60;;
291;SDS011;23311;48.776;9.162;2023-08-24T09:20:23;5.30;;;5.00;;
291;SDS011;23311;48.776;9.162;2023-08-24T09:22:55;6.47;;;5.70;;
291;SDS011;23311;48.776;9.162;2023-08-24T09:25:23;5.40;;;5.10;;
291;SDS011;23311;48.776;9.162;2023-08-24T09:27:59;6.40;;;5.23;;
291;SDS011;23311;48.776;9.162;2023-08-24T09:30:29;6.07;;;5.67;;
291;SDS011;23311;48.776;9.162;2023-08-24T09:33:02;6.33;;;5.97;;
291;SDS011;23311;48.776;9.162;2023-08-24T09:35:35;5.63;;;5.33;;
291;SDS011;23311;48.776;9.162;2023-08-24T09:38:16;5.87;;;5.57;;
291;SDS011;23311;48.776;9.162;2023-08-24T09:40:45;5.93;;;5.63;;
291;SDS011;23311;48.776;9.162;2023-08-24T09:43:16;6.90;;;6.23;;
291;SDS011;23311;48.776;9.162;2023-08-24T09:45:48;6.40;;;6.00;;
291;SDS011;23311;48.776;9.162;2023-08-24T09:48:17;9.30;;;5.50;;
291;SDS011;23311;48.776;9.162;2023-08-24T09:50:46;6.13;;;5.63;;
291;SDS011;23311;48.776;9.162;2023-08-24T09:53:16;5.67;;;5.37;;
291;SDS011;23311;48.776;9.162;2023-08-24T09:55:48;7.00;;;6.30;;
291;SDS011;23311;48.776;9.162;2023-08-24T09:58:23;14.43;;;6.23;;
291;SDS011;23311;48.776;9.162;2023-08-24T10:00:52;6.60;;;6.00;;
291;SDS011;23311;48.776;9.162;2023-08-24T10:03:24;7.50;;;5.97;;
291;SDS011;23311;48.776;9.162;2023-08-24T10:05:54;7.10;;;6.33;;
291;SDS011;23311;48.776;9.162;2023-08-24T10:08:32;7.07;;;6.07;;
291;SDS011;23311;48.776;9.162;2023-08-24T10:11:03;10.37;;;6.83;;
291;SDS011;23311;48.776;9.162;2023-08-24T10:13:36;6.93;;;5.97;;
291;SDS011;23311;48.776;9.162;2023-08-24T10:16:08;6.60;;;6.20;;
291;SDS011;23311;48.776;9.162;2023-08-24T10:18:39;6.00;;;5.70;;
291;SDS011;23311;48.776;9.162;2023-08-24T10:21:08;6.80;;;6.20;;
291;SDS011;23311;48.776;9.162;2023-08-24T10:23:36;6.23;;;5.90;;
291;SDS011;23311;48.776;9.162;2023-08-24T10:26:06;6.93;;;5.77;;
291;SDS011;23311;48.776;9.162;2023-08-24T10:28:37;7.53;;;7.13;;
291;SDS011;23311;48.776;9.162;2023-08-24T10:31:06;6.57;;;6.17;;
291;SDS011;23311;48.776;9.162;2023-08-24T10:33:35;7.40;;;6.50;;
291;SDS011;23311;48.776;9.162;2023-08-24T10:36:04;11.20;;;6.77;;
291;SDS011;23311;48.776;9.162;2023-08-24T10:38:34;10.90;;;6.37;;
291;SDS011;23311;48.776;9.162;2023-08-24T10:41:07;6.90;;;6.50;;
291;SDS011;23311;48.776;9.162;2023-08-24T10:43:38;8.90;;;6.67;;
291;SDS011;23311;48.776;9.162;2023-08-24T10:46:11;7.40;;;6.23;;
291;SDS011;23311;48.776;9.162;2023-08-24T10:51:24;6.37;;;6.00;;
291;SDS011;23311;48.776;9.162;2023-08-24T10:53:54;6.60;;;6.17;;
291;SDS011;23311;48.776;9.162;2023-08-24T10:56:29;10.63;;;6.40;;
291;SDS011;23311;48.776;9.162;2023-08-24T10:59:13;7.40;;;6.97;;
291;SDS011;23311;48.776;9.162;2023-08-24T11:01:43;8.17;;;7.20;;
291;SDS011;23311;48.776;9.162;2023-08-24T11:04:22;7.80;;;6.53;;
291;SDS011;23311;48.776;9.162;2023-08-24T11:06:51;6.57;;;6.17;;
291;SDS011;23311;48.776;9.162;2023-08-24T11:09:20;7.67;;;6.53;;
291;SDS011;23311;48.776;9.162;2023-08-24T11:11:59;7.63;;;6.43;;
291;SDS011;23311;48.776;9.162;2023-08-24T11:14:31;7.03;;;6.47;;
291;SDS011;23311;48.776;9.162;2023-08-24T11:17:18;7.20;;;6.80;;
291;SDS011;23311;48.776;9.162;2023-08-24T11:19:48;6.60;;;6.20;;
291;SDS011;23311;48.776;9.162;2023-08-24T11:22:17;7.37;;;6.97;;
291;SDS011;23311;48.776;9.162;2023-08-24T11:24:46;8.13;;;7.63;;
291;SDS011;23311;48.776;9.162;2023-08-24T11:27:15;7.47;;;7.07;;
291;SDS011;23311;48.776;9.162;2023-08-24T11:29:44;8.37;;;7.37;;
291;SDS011;23311;48.776;9.162;2023-08-24T11:32:12;6.93;;;6.53;;
291;SDS011;23311;48.776;9.162;2023-08-24T11:34:41;6.70;;;6.30;;
291;SDS011;23311;48.776;9.162;2023-08-24T11:37:18;7.10;;;6.70;;
291;SDS011;23311;48.776;9.162;2023-08-24T11:39:46;6.77;;;6.37;;
291;SDS011;23311;48.776;9.162;2023-08-24T11:42:14;8.57;;;7.00;;
291;SDS011;23311;48.776;9.162;2023-08-24T11:44:47;7.00;;;6.43;;
291;SDS011;23311;48.776;9.162;2023-08-24T11:47:16;7.20;;;6.80;;
291;SDS011;23311;48.776;9.162;2023-08-24T11:49:46;7.30;;;6.90;;
291;SDS011;23311;48.776;9.162;2023-08-24T11:52:15;7.10;;;6.70;;
291;SDS011;23311;48.776;9.162;2023-08-24T11:54:44;7.13;;;6.30;;
291;SDS011;23311;48.776;9.162;2023-08-24T11:57:12;7.00;;;6.27;;
291;SDS011;23311;48.776;9.162;2023-08-24T11:59:41;7.33;;;6.73;;
291;SDS011;23311;48.776;9.162;2023-08-24T12:02:13;6.67;;;6.10;;
291;SDS011;23311;48.776;9.162;2023-08-24T12:04:44;8.10;;;7.70;;
291;SDS011;23311;48.776;9.162;2023-08-24T12:07:15;6.83;;;6.43;;
291;SDS011;23311;48.776;9.162;2023-08-24T12:09:44;7.93;;;7.53;;
291;SDS011;23311;48.776;9.162;2023-08-24T12:12:13;8.03;;;6.87;;
291;SDS011;23311;48.776;9.162;2023-08-24T12:14:42;7.20;;;6.63;;
291;SDS011;23311;48.776;9.162;2023-08-24T12:17:10;9.53;;;6.30;;
291;SDS011;23311;48.776;9.162;2023-08-24T12:19:42;7.57;;;6.77;;
291;SDS011;23311;48.776;9.162;2023-08-24T12:22:14;6.73;;;6.33;;
291;SDS011;23311;48.776;9.162;2023-08-24T12:24:43;6.87;;;6.47;;
291;SDS011;23311;48.776;9.162;2023-08-24T12:27:17;6.70;;;6.30;;
291;SDS011;23311;48.776;9.162;2023-08-24T12:29:46;7.17;;;6.77;;
291;SDS011;23311;48.776;9.162;2023-08-24T12:32:14;12.13;;;6.90;;
291;SDS011;23311;48.776;9.162;2023-08-24T12:34:47;7.23;;;6.40;;
291;SDS011;23311;48.776;9.162;2023-08-24T12:37:18;7.63;;;6.50;;
291;SDS011;23311;48.776;9.162;2023-08-24T12:39:46;8.40;;;6.90;;
291;SDS011;23311;48.776;9.162;2023-08-24T12:42:15;6.67;;;6.07;;
291;SDS011;23311;48.776;9.162;2023-08-24T12:44:43;6.77;;;6.37;;
291;SDS011;23311;48.776;9.162;2023-08-24T12:47:11;7.03;;;6.63;;
291;SDS011;23311;48.776;9.162;2023-08-24T12:49:39;7.90;;;6.50;;
291;SDS011;23311;48.776;9.162;2023-08-24T12:52:09;7.67;;;7.27;;
291;SDS011;23311;48.776;9.162;2023-08-24T12:54:37;8.80;;;6.80;;
291;SDS011;23311;48.776;9.162;2023-08-24T12:57:05;7.50;;;6.43;;
291;SDS011;23311;48.776;9.162;2023-08-24T12:59:33;8.53;;;6.10;;
291;SDS011;23311;48.776;9.162;2023-08-24T13:02:01;6.17;;;5.87;;
291;SDS011;23311;48.776;9.162;2023-08-24T13:04:30;7.40;;;7.00;;
291;SDS011;23311;48.776;9.162;2023-08-24T13:07:00;8.73;;;6.83;;
291;SDS011;23311;48.776;9.162;2023-08-24T13:09:29;8.50;;;7.10;;
291;SDS011;23311;48.776;9.162;2023-08-24T13:11:57;8.77;;;6.50;;
291;SDS011;23311;48.776;9.162;2023-08-24T13:14:25;7.60;;;6.87;;
291;SDS011;23311;48.776;9.162;2023-08-24T13:16:54;7.60;;;6.80;;
291;SDS011;23311;48.776;9.162;2023-08-24T13:19:22;8.20;;;6.70;;
291;SDS011;23311;48.776;9.162;2023-08-24T13:21:50;6.60;;;6.20;;
291;SDS011;23311;48.776;9.162;2023-08-24T13:24:22;6.80;;;6.40;;
291;SDS011;23311;48.776;9.162;2023-08-24T13:26:51;8.93;;;7.40;;
291;SDS011;23311;48.776;9.162;2023-08-24T13:29:19;8.20;;;7.37;;
291;SDS011;23311;48.776;9.162;2023-08-24T13:31:47;6.80;;;6.40;;
291;SDS011;23311;48.776;9.162;2023-08-24T13:34:16;11.53;;;7.50;;
291;SDS011;23311;48.776;9.162;2023-08-24T13:36:46;8.53;;;6.90;;
291;SDS011;23311;48.776;9.162;2023-08-24T13:39:14;7.37;;;6.00;;
291;SDS011;23311;48.776;9.162;2023-08-24T13:41:43;7.80;;;6.53;;
291;SDS011;23311;48.776;9.162;2023-08-24T13:44:13;5.90;;;5.60;;
291;SDS011;23311;48.776;9.162;2023-08-24T13:46:41;5.90;;;5.60;;
291;SDS011;23311;48.776;9.162;2023-08-24T13:49:09;13.30;;;6.50;;
291;SDS011;23311;48.776;9.162;2023-08-24T13:51:42;7.60;;;6.43;;
291;SDS011;23311;48.776;9.162;2023-08-24T13:54:14;7.67;;;6.27;;
291;SDS011;23311;48.776;9.162;2023-08-24T13:56:42;6.80;;;6.40;;
291;SDS011;23311;48.776;9.162;2023-08-24T13:59:12;9.37;;;5.77;;
291;SDS011;23311;48.776;9.162;2023-08-24T14:01:40;9.73;;;6.70;;
291;SDS011;23311;48.776;9.162;2023-08-24T14:04:09;7.20;;;5.60;;
291;SDS011;23311;48.776;9.162;2023-08-24T14:06:37;7.83;;;5.60;;
291;SDS011;23311;48.776;9.162;2023-08-24T14:09:05;10.33;;;5.57;;
291;SDS011;23311;48.776;9.162;2023-08-24T14:11:34;7.50;;;5.30;;
291;SDS011;23311;48.776;9.162;2023-08-24T14:14:02;7.70;;;5.37;;
291;SDS011;23311;48.776;9.162;2023-08-24T14:16:31;8.10;;;5.40;;
291;SDS011;23311;48.776;9.162;2023-08-24T14:18:59;11.00;;;6.90;;
291;SDS011;23311;48.776;9.162;2023-08-24T14:21:31;5.93;;;4.93;;
291;SDS011;23311;48.776;9.162;2023-08-24T14:24:10;6.90;;;5.50;;
291;SDS011;23311;48.776;9.162;2023-08-24T14:26:38;6.90;;;5.50;;
291;SDS011;23311;48.776;9.162;2023-08-24T14:29:12;7.00;;;5.40;;
291;SDS011;23311;48.776;9.162;2023-08-24T14:31:42;7.50;;;5.27;;
291;SDS011;23311;48.776;9.162;2023-08-24T14:34:10;11.27;;;5.80;;
291;SDS011;23311;48.776;9.162;2023-08-24T14:36:38;7.27;;;5.33;;
291;SDS011;23311;48.776;9.162;2023-08-24T14:39:06;7.83;;;4.80;;
291;SDS011;23311;48.776;9.162;2023-08-24T14:41:35;8.90;;;5.77;;
291;SDS011;23311;48.776;9.162;2023-08-24T14:44:03;7.60;;;5.57;;
291;SDS011;23311;48.776;9.162;2023-08-24T14:46:31;8.60;;;6.57;;
291;SDS011;23311;48.776;9.162;2023-08-24T14:49:01;9.07;;;6.10;;
291;SDS011;23311;48.776;9.162;2023-08-24T14:51:30;14.03;;;6.40;;
291;SDS011;23311;48.776;9.162;2023-08-24T14:53:58;6.50;;;5.53;;
291;SDS011;23311;48.776;9.162;2023-08-24T14:56:26;5.60;;;5.30;;
291;SDS011;23311;48.776;9.162;2023-08-24T14:58:54;12.53;;;6.57;;
291;SDS011;23311;48.776;9.162;2023-08-24T15:01:22;9.87;;;6.83;;
291;SDS011;23311;48.776;9.162;2023-08-24T15:03:51;15.07;;;7.60;;
291;SDS011;23311;48.776;9.162;2023-08-24T15:06:20;7.60;;;7.20;;
291;SDS011;23311;48.776;9.162;2023-08-24T15:08:49;11.03;;;8.53;;
291;SDS011;23311;48.776;9.162;2023-08-24T15:11:17;11.30;;;7.70;;
291;SDS011;23311;48.776;9.162;2023-08-24T15:13:46;6.70;;;5.80;;
291;SDS011;23311;48.776;9.162;2023-08-24T15:16:15;7.27;;;4.00;;
291;SDS011;23311;48.776;9.162;2023-08-24T15:18:43;5.77;;;3.80;;
291;SDS011;23311;48.776;9.162;2023-08-24T15:21:12;4.77;;;3.80;;
291;SDS011;23311;48.776;9.162;2023-08-24T15:23:42;5.40;;;3.50;;
291;SDS011;23311;48.776;9.162;2023-08-24T15:26:11;5.27;;;3.70;;
291;SDS011;23311;48.776;9.162;2023-08-24T15:31:35;4.73;;;4.10;;